createdAt,value
2019-05-17T00:00:17.889Z,14.74
2019-05-17T00:02:46.638Z,14.66
2019-05-17T00:05:17.513Z,14.67
2019-05-17T00:07:47.495Z,14.69
2019-05-17T00:10:17.329Z,14.61
2019-05-17T00:12:47.124Z,14.71
2019-05-17T00:15:16.901Z,14.72
2019-05-17T00:17:46.924Z,14.01
2019-05-17T00:20:17.325Z,14.75
2019-05-17T00:22:47.148Z,14.60
2019-05-17T00:25:17.123Z,14.52
2019-05-17T00:27:47.362Z,14.56
2019-05-17T00:30:17.526Z,14.62
2019-05-17T00:32:47.503Z,14.57
2019-05-17T00:35:17.871Z,14.54
2019-05-17T00:37:46.732Z,14.42
2019-05-17T00:40:16.577Z,14.46
2019-05-17T00:42:46.668Z,14.48
2019-05-17T00:45:17.639Z,14.49
2019-05-17T00:47:46.839Z,14.46
2019-05-17T00:50:16.967Z,14.40
2019-05-17T00:52:47.428Z,14.37
2019-05-17T00:55:17.508Z,14.43
2019-05-17T00:57:47.478Z,14.34
2019-05-17T01:00:17.285Z,14.33
2019-05-17T01:02:46.878Z,14.42
2019-05-17T01:05:17.102Z,14.42
2019-05-17T01:07:47.059Z,14.46
2019-05-17T01:10:16.884Z,14.54
2019-05-17T01:12:45.448Z,14.51
2019-05-17T01:15:16.761Z,14.44
2019-05-17T01:17:47.151Z,14.53
2019-05-17T01:20:17.323Z,14.50
2019-05-17T01:22:47.454Z,14.27
2019-05-17T01:25:17.235Z,14.39
2019-05-17T01:27:49.285Z,14.46
2019-05-17T01:30:17.964Z,14.51
2019-05-17T01:32:46.713Z,14.36
2019-05-17T01:35:16.692Z,14.40
2019-05-17T01:37:47.562Z,14.37
2019-05-17T01:40:17.553Z,14.37
2019-05-17T01:42:46.645Z,14.42
2019-05-17T01:45:16.734Z,14.32
2019-05-17T01:47:47.536Z,14.35
2019-05-17T01:50:17.533Z,14.36
2019-05-17T01:52:46.318Z,14.47
2019-05-17T01:55:17.423Z,14.35
2019-05-17T01:57:47.595Z,14.39
2019-05-17T02:00:17.481Z,14.32
2019-05-17T02:02:50.848Z,14.35
2019-05-17T02:05:19.551Z,14.31
2019-05-17T02:07:48.040Z,14.36
2019-05-17T02:10:17.548Z,14.35
2019-05-17T02:12:48.992Z,14.30
2019-05-17T02:15:17.468Z,14.27
2019-05-17T02:17:46.862Z,14.33
2019-05-17T02:20:17.217Z,14.32
2019-05-17T02:22:47.359Z,14.25
2019-05-17T02:25:17.899Z,14.15
2019-05-17T02:27:46.428Z,14.22
2019-05-17T02:30:15.521Z,14.30
2019-05-17T02:32:45.367Z,14.26
2019-05-17T02:35:14.957Z,14.17
2019-05-17T02:37:44.137Z,14.03
2019-05-17T02:40:14.955Z,14.19
2019-05-17T02:42:43.991Z,14.18
2019-05-17T02:45:13.614Z,14.21
2019-05-17T02:47:43.616Z,14.15
2019-05-17T02:50:13.364Z,14.21
2019-05-17T02:52:43.804Z,14.18
2019-05-17T02:55:13.228Z,14.12
2019-05-17T02:57:43.270Z,14.14
2019-05-17T03:00:14.289Z,14.13
2019-05-17T03:02:43.841Z,14.04
2019-05-17T03:05:14.002Z,14.07
2019-05-17T03:07:44.311Z,14.02
2019-05-17T03:10:22.773Z,14.01
2019-05-17T03:12:44.569Z,14.06
2019-05-17T03:15:13.694Z,14.01
2019-05-17T03:17:43.502Z,14.01
2019-05-17T03:20:13.484Z,14.13
2019-05-17T03:22:43.851Z,13.95
2019-05-17T03:25:13.613Z,14.05
2019-05-17T03:27:43.574Z,13.85
2019-05-17T03:30:17.502Z,13.88
2019-05-17T03:32:47.516Z,13.94
2019-05-17T03:35:17.249Z,13.94
2019-05-17T03:37:45.187Z,13.85
2019-05-17T03:40:34.941Z,13.87
2019-05-17T03:42:44.645Z,13.97
2019-05-17T03:45:14.126Z,13.84
2019-05-17T03:47:44.467Z,13.93
2019-05-17T03:50:14.176Z,13.82
2019-05-17T03:52:44.397Z,13.97
2019-05-17T03:55:13.614Z,13.86
2019-05-17T03:57:44.047Z,13.76
2019-05-17T04:00:13.504Z,13.85
2019-05-17T04:02:44.291Z,13.82
2019-05-17T04:05:12.982Z,13.62
2019-05-17T04:07:43.339Z,13.72
2019-05-17T04:10:15.041Z,13.67
2019-05-17T04:12:44.090Z,13.75
2019-05-17T04:15:14.581Z,13.63
2019-05-17T04:17:43.892Z,13.72
2019-05-17T04:20:13.870Z,13.64
2019-05-17T04:22:44.088Z,13.64
2019-05-17T04:25:13.549Z,13.74
2019-05-17T04:27:43.971Z,13.79
2019-05-17T04:30:13.629Z,13.78
2019-05-17T04:32:44.194Z,13.87
2019-05-17T04:35:13.320Z,13.73
2019-05-17T04:37:44.608Z,13.80
2019-05-17T04:40:14.177Z,13.98
2019-05-17T04:42:43.854Z,13.97
2019-05-17T04:45:13.280Z,13.91
2019-05-17T04:47:44.363Z,13.98
2019-05-17T04:50:13.591Z,13.97
2019-05-17T04:52:43.282Z,13.97
2019-05-17T04:55:13.868Z,13.90
2019-05-17T04:57:43.710Z,14.07
2019-05-17T05:00:13.507Z,14.19
2019-05-17T05:02:43.735Z,14.15
2019-05-17T05:05:15.471Z,14.13
2019-05-17T05:07:46.827Z,14.23
2019-05-17T05:10:15.344Z,14.18
2019-05-17T05:12:44.415Z,14.23
2019-05-17T05:15:13.410Z,14.24
2019-05-17T05:17:42.745Z,14.21
2019-05-17T05:20:13.186Z,14.10
2019-05-17T05:22:43.307Z,14.20
2019-05-17T05:25:12.703Z,14.14
2019-05-17T05:27:42.678Z,14.20
2019-05-17T05:30:12.499Z,14.17
2019-05-17T05:32:42.568Z,14.10
2019-05-17T05:35:12.407Z,14.16
2019-05-17T05:37:42.336Z,14.02
2019-05-17T05:40:12.805Z,14.18
2019-05-17T05:42:42.545Z,14.23
2019-05-17T05:45:12.607Z,14.20
2019-05-17T05:47:42.352Z,14.38
2019-05-17T05:50:12.465Z,14.46
2019-05-17T05:52:42.312Z,14.31
2019-05-17T05:55:12.457Z,14.44
2019-05-17T05:57:41.976Z,14.40
2019-05-17T06:00:13.393Z,14.41
2019-05-17T06:02:42.200Z,14.49
2019-05-17T06:05:14.767Z,14.55
2019-05-17T06:07:42.086Z,14.46
2019-05-17T06:10:13.058Z,14.40
2019-05-17T06:12:43.493Z,14.39
2019-05-17T06:15:12.834Z,14.48
2019-05-17T06:17:42.853Z,14.52
2019-05-17T06:20:12.083Z,14.45
2019-05-17T06:22:42.676Z,14.41
2019-05-17T06:25:15.193Z,14.42
2019-05-17T06:27:41.551Z,14.52
2019-05-17T06:30:12.649Z,14.40
2019-05-17T06:32:43.213Z,14.51
2019-05-17T06:35:12.768Z,14.30
2019-05-17T06:37:42.358Z,14.48
2019-05-17T06:40:13.118Z,14.37
2019-05-17T06:42:45.137Z,14.38
2019-05-17T06:45:12.675Z,14.63
2019-05-17T06:47:42.651Z,14.61
2019-05-17T06:50:14.409Z,14.59
2019-05-17T06:52:43.450Z,14.69
2019-05-17T06:55:12.930Z,14.71
2019-05-17T06:57:43.163Z,14.71
2019-05-17T07:00:18.218Z,14.72
2019-05-17T07:02:42.199Z,14.70
2019-05-17T07:05:12.474Z,14.69
2019-05-17T07:07:40.921Z,14.48
2019-05-17T07:10:11.170Z,14.48
2019-05-17T07:12:54.391Z,14.42
2019-05-17T07:15:10.895Z,14.52
2019-05-17T07:17:40.150Z,14.55
2019-05-17T07:20:10.364Z,14.56
2019-05-17T07:22:40.793Z,14.55
2019-05-17T07:25:10.782Z,14.65
2019-05-17T07:27:44.865Z,14.72
2019-05-17T07:30:13.325Z,14.53
2019-05-17T07:32:41.776Z,14.44
2019-05-17T07:35:11.081Z,14.38
2019-05-17T07:37:40.118Z,14.38
2019-05-17T07:40:10.930Z,14.49
2019-05-17T07:42:39.876Z,14.44
2019-05-17T07:45:10.470Z,14.34
2019-05-17T07:47:40.550Z,14.31
2019-05-17T07:50:11.305Z,14.24
2019-05-17T07:52:40.299Z,14.15
2019-05-17T07:55:12.154Z,14.11
2019-05-17T07:57:41.237Z,14.27
2019-05-17T08:00:10.639Z,14.31
2019-05-17T08:02:40.086Z,14.33
2019-05-17T08:05:10.004Z,14.34
2019-05-17T08:07:40.354Z,14.26
2019-05-17T08:10:11.159Z,14.41
2019-05-17T08:12:41.568Z,14.35
2019-05-17T08:15:11.187Z,14.34
2019-05-17T08:17:40.185Z,14.46
2019-05-17T08:20:10.557Z,14.44
2019-05-17T08:22:40.015Z,14.44
2019-05-17T08:25:10.197Z,14.57
2019-05-17T08:27:44.888Z,14.46
2019-05-17T08:30:13.781Z,14.42
2019-05-17T08:32:43.731Z,14.49
2019-05-17T08:35:12.863Z,14.59
2019-05-17T08:37:42.590Z,14.45
2019-05-17T08:40:14.891Z,14.58
2019-05-17T08:42:42.086Z,14.59
2019-05-17T08:45:10.965Z,14.66
2019-05-17T08:47:39.913Z,14.68
2019-05-17T08:50:12.277Z,14.65
2019-05-17T08:52:42.782Z,14.78
2019-05-17T08:55:13.101Z,14.67
2019-05-17T08:57:41.622Z,14.70
2019-05-17T09:00:11.015Z,14.60
2019-05-17T09:02:40.830Z,14.77
2019-05-17T09:05:10.193Z,14.72
2019-05-17T09:07:40.214Z,14.82
2019-05-17T09:10:10.171Z,14.85
2019-05-17T09:12:40.968Z,14.86
2019-05-17T09:15:10.105Z,14.89
2019-05-17T09:17:39.644Z,14.73
2019-05-17T09:20:10.650Z,14.80
2019-05-17T09:22:39.782Z,14.88
2019-05-17T09:25:13.578Z,14.81
2019-05-17T09:27:39.701Z,14.76
2019-05-17T09:30:11.495Z,14.68
2019-05-17T09:32:40.564Z,14.94
2019-05-17T09:35:10.323Z,14.95
2019-05-17T09:37:41.545Z,15.23
2019-05-17T09:40:09.491Z,15.40
2019-05-17T09:42:40.795Z,15.37
2019-05-17T09:45:10.136Z,15.24
2019-05-17T09:47:39.754Z,15.25
2019-05-17T09:50:10.001Z,15.26
2019-05-17T09:52:40.648Z,15.30
2019-05-17T09:55:09.945Z,15.27
2019-05-17T09:57:41.001Z,15.08
2019-05-17T10:00:10.148Z,15.06
2019-05-17T10:02:40.187Z,14.90
2019-05-17T10:05:10.677Z,14.97
2019-05-17T10:07:40.396Z,14.89
2019-05-17T10:10:10.461Z,14.84
2019-05-17T10:12:40.427Z,14.84
2019-05-17T10:15:14.924Z,14.82
2019-05-17T10:17:43.355Z,14.93
2019-05-17T10:20:13.777Z,14.97
2019-05-17T10:22:42.205Z,15.21
2019-05-17T10:25:10.876Z,15.17
2019-05-17T10:27:40.731Z,15.31
2019-05-17T10:30:10.614Z,15.50
2019-05-17T10:32:40.725Z,15.47
2019-05-17T10:35:09.567Z,15.58
2019-05-17T10:37:40.642Z,15.58
2019-05-17T10:40:10.365Z,15.60
2019-05-17T10:42:39.585Z,15.56
2019-05-17T10:45:10.923Z,15.47
2019-05-17T10:47:39.604Z,15.43
2019-05-17T10:50:10.948Z,15.37
2019-05-17T10:52:56.902Z,15.20
2019-05-17T10:55:25.326Z,15.15
2019-05-17T10:57:53.757Z,15.09
2019-05-17T11:00:22.551Z,14.98
2019-05-17T11:02:50.984Z,15.14
2019-05-17T11:05:20.164Z,15.28
2019-05-17T11:07:50.402Z,15.17
2019-05-17T11:10:19.411Z,15.27
2019-05-17T11:12:48.009Z,15.28
2019-05-17T11:15:16.558Z,15.39
2019-05-17T11:17:44.981Z,15.44
2019-05-17T11:20:13.671Z,15.37
2019-05-17T11:22:42.120Z,15.22
2019-05-17T11:25:10.631Z,15.20
2019-05-17T11:27:39.047Z,15.31
2019-05-17T11:30:07.735Z,15.28
2019-05-17T11:32:36.292Z,15.38
2019-05-17T11:35:05.659Z,15.46
2019-05-17T11:37:34.162Z,15.50
2019-05-17T11:40:02.993Z,15.38
2019-05-17T11:42:31.417Z,15.38
2019-05-17T11:44:59.826Z,15.37
2019-05-17T11:47:28.273Z,15.32
2019-05-17T11:49:56.721Z,15.20
2019-05-17T11:52:25.238Z,15.15
2019-05-17T11:54:53.668Z,15.17
2019-05-17T11:57:22.079Z,15.23
2019-05-17T11:59:50.575Z,15.17
2019-05-17T12:02:21.492Z,15.12
2019-05-17T12:04:49.161Z,15.04
2019-05-17T12:07:17.596Z,15.10
2019-05-17T12:09:46.048Z,15.15
2019-05-17T12:12:14.480Z,15.09
2019-05-17T12:14:42.920Z,14.93
2019-05-17T12:17:11.422Z,14.76
2019-05-17T12:19:39.859Z,14.62
2019-05-17T12:22:08.309Z,14.67
2019-05-17T12:24:36.745Z,14.69
2019-05-17T12:27:05.279Z,14.74
2019-05-17T12:29:33.704Z,14.86
2019-05-17T12:32:02.207Z,14.88
2019-05-17T12:34:30.651Z,15.14
2019-05-17T12:36:59.116Z,15.37
2019-05-17T12:39:27.605Z,15.52
2019-05-17T12:41:56.143Z,15.62
2019-05-17T12:44:27.108Z,15.57
2019-05-17T12:46:55.565Z,15.74
2019-05-17T12:49:23.989Z,15.70
2019-05-17T12:51:52.423Z,15.64
2019-05-17T12:54:20.847Z,15.55
2019-05-17T12:56:49.259Z,15.53
2019-05-17T12:59:17.678Z,15.33
2019-05-17T13:01:46.289Z,15.27
2019-05-17T13:04:14.744Z,15.19
2019-05-17T13:06:43.332Z,15.29
2019-05-17T13:09:11.865Z,15.34
2019-05-17T13:11:40.305Z,15.33
2019-05-17T13:14:08.832Z,15.53
2019-05-17T13:16:37.321Z,15.63
2019-05-17T13:19:05.748Z,15.75
2019-05-17T13:21:34.306Z,15.91
2019-05-17T13:24:02.736Z,15.80
2019-05-17T13:26:32.734Z,15.77
2019-05-17T13:29:01.214Z,15.74
2019-05-17T13:31:30.294Z,15.72
2019-05-17T13:33:58.761Z,15.67
2019-05-17T13:36:27.468Z,15.62
2019-05-17T13:38:55.921Z,15.68
2019-05-17T13:41:24.472Z,15.70
2019-05-17T13:43:53.009Z,15.73
2019-05-17T13:46:32.647Z,15.81
2019-05-17T13:48:51.689Z,15.82
2019-05-17T13:51:20.185Z,15.87
2019-05-17T13:53:48.707Z,15.98
2019-05-17T13:56:17.139Z,16.10
2019-05-17T13:58:45.594Z,16.10
2019-05-17T14:01:17.032Z,16.20
2019-05-17T14:03:48.598Z,16.16
2019-05-17T14:06:17.049Z,16.36
2019-05-17T14:08:45.537Z,16.61
2019-05-17T14:11:13.993Z,16.46
2019-05-17T14:13:45.195Z,16.43
2019-05-17T14:16:13.676Z,16.35
2019-05-17T14:18:42.127Z,16.33
2019-05-17T14:21:10.581Z,16.32
2019-05-17T14:23:41.446Z,16.43
2019-05-17T14:26:09.905Z,16.53
2019-05-17T14:28:38.351Z,16.50
2019-05-17T14:31:06.780Z,16.55
2019-05-17T14:33:37.882Z,16.60
2019-05-17T14:36:06.386Z,16.65
2019-05-17T14:38:34.804Z,16.54
2019-05-17T14:41:07.175Z,16.56
2019-05-17T14:43:33.507Z,16.54
2019-05-17T14:46:01.921Z,16.58
2019-05-17T14:48:31.879Z,16.64
2019-05-17T14:51:00.380Z,16.58
2019-05-17T14:53:28.811Z,16.58
2019-05-17T14:55:57.283Z,16.69
2019-05-17T14:58:25.882Z,16.56
2019-05-17T15:00:54.403Z,16.50
2019-05-17T15:03:24.352Z,16.47
2019-05-17T15:05:52.824Z,16.49
2019-05-17T15:08:21.222Z,16.57
2019-05-17T15:10:49.708Z,16.50
2019-05-17T15:13:18.182Z,16.43
2019-05-17T15:15:46.737Z,16.44
2019-05-17T15:18:15.191Z,16.44
2019-05-17T15:20:43.667Z,16.50
2019-05-17T15:23:12.127Z,16.59
2019-05-17T15:25:40.558Z,16.65
2019-05-17T15:28:09.007Z,16.66
2019-05-17T15:30:37.524Z,16.59
2019-05-17T15:33:05.997Z,16.55
2019-05-17T15:35:34.484Z,16.41
2019-05-17T15:38:02.991Z,16.40
2019-05-17T15:40:31.446Z,16.42
2019-05-17T15:43:02.969Z,16.35
2019-05-17T15:45:31.398Z,16.39
2019-05-17T15:47:59.861Z,16.39
2019-05-17T15:50:28.313Z,16.41
2019-05-17T15:52:56.749Z,16.42
2019-05-17T15:55:25.176Z,16.35
2019-05-17T15:57:53.621Z,16.36
2019-05-17T16:00:22.169Z,16.29
2019-05-17T16:02:50.603Z,16.27
2019-05-17T16:05:19.270Z,16.23
2019-05-17T16:07:47.720Z,16.24
2019-05-17T16:10:16.392Z,16.30
2019-05-17T16:13:00.869Z,16.31
2019-05-17T16:15:15.954Z,16.30
2019-05-17T16:17:44.409Z,16.17
2019-05-17T16:20:16.743Z,16.17
2019-05-17T16:22:43.378Z,16.20
2019-05-17T16:25:11.911Z,16.18
2019-05-17T16:27:40.405Z,16.21
2019-05-17T16:30:09.397Z,16.15
2019-05-17T16:32:37.863Z,16.21
2019-05-17T16:35:06.733Z,16.22
2019-05-17T16:37:35.191Z,16.22
2019-05-17T16:40:04.832Z,16.21
2019-05-17T16:42:33.299Z,16.22
2019-05-17T16:45:01.837Z,16.23
2019-05-17T16:47:30.311Z,16.16
2019-05-17T16:49:58.763Z,16.16
2019-05-17T16:52:27.179Z,16.19
2019-05-17T16:54:55.654Z,16.18
2019-05-17T16:57:24.095Z,16.20
2019-05-17T16:59:52.537Z,16.09
2019-05-17T17:02:20.965Z,16.03
2019-05-17T17:04:49.419Z,15.98
2019-05-17T17:07:17.848Z,15.90
2019-05-17T17:09:46.295Z,15.91
2019-05-17T17:12:14.719Z,15.82
2019-05-17T17:14:43.150Z,15.87
2019-05-17T17:17:13.102Z,15.89
2019-05-17T17:19:41.772Z,15.90
2019-05-17T17:22:10.276Z,15.82
2019-05-17T17:24:38.704Z,15.81
2019-05-17T17:27:07.159Z,15.78
2019-05-17T17:29:35.621Z,15.75
2019-05-17T17:32:04.034Z,15.67
2019-05-17T17:34:32.475Z,15.64
2019-05-17T17:37:00.922Z,15.63
2019-05-17T17:39:29.352Z,15.61
2019-05-17T17:41:57.831Z,15.59
2019-05-17T17:44:26.256Z,15.59
2019-05-17T17:46:54.699Z,15.52
2019-05-17T17:49:23.142Z,15.50
2019-05-17T17:51:51.571Z,15.42
2019-05-17T17:54:20.017Z,15.45
2019-05-17T17:56:48.421Z,15.43
2019-05-17T17:59:16.855Z,15.46
2019-05-17T18:01:45.320Z,15.43
2019-05-17T18:04:13.755Z,15.43
2019-05-17T18:06:42.169Z,15.42
2019-05-17T18:09:10.678Z,15.30
2019-05-17T18:11:39.202Z,15.32
2019-05-17T18:14:13.377Z,15.30
2019-05-17T18:16:37.855Z,15.30
2019-05-17T18:19:06.354Z,15.27
2019-05-17T18:21:34.871Z,15.24
2019-05-17T18:24:03.317Z,15.26
2019-05-17T18:26:31.750Z,15.31
2019-05-17T18:29:00.269Z,15.25
2019-05-17T18:31:31.713Z,15.32
2019-05-17T18:34:00.728Z,15.32
2019-05-17T18:36:29.143Z,15.31
2019-05-17T18:38:58.311Z,15.35
2019-05-17T18:41:26.764Z,15.30
2019-05-17T18:43:55.198Z,15.29
2019-05-17T18:46:23.712Z,15.32
2019-05-17T18:48:52.211Z,15.32
2019-05-17T18:51:20.737Z,15.30
2019-05-17T18:53:49.450Z,15.28
2019-05-17T18:56:17.927Z,15.26
2019-05-17T18:58:46.342Z,15.24
2019-05-17T19:01:14.802Z,15.24
2019-05-17T19:03:43.217Z,15.22
2019-05-17T19:06:11.684Z,15.28
2019-05-17T19:08:40.115Z,15.22
2019-05-17T19:11:08.663Z,15.20
2019-05-17T19:13:37.085Z,15.19
2019-05-17T19:16:05.609Z,15.23
2019-05-17T19:18:34.047Z,15.20
2019-05-17T19:21:02.594Z,15.16
2019-05-17T19:23:31.020Z,15.17
2019-05-17T19:25:59.471Z,15.16
2019-05-17T19:28:27.924Z,15.12
2019-05-17T19:30:56.402Z,15.14
2019-05-17T19:33:24.836Z,15.21
2019-05-17T19:35:53.264Z,15.18
2019-05-17T19:38:21.740Z,15.20
2019-05-17T19:40:50.232Z,15.17
2019-05-17T19:43:18.669Z,15.17
2019-05-17T19:45:47.115Z,15.17
2019-05-17T19:48:15.556Z,15.17
2019-05-17T19:50:43.977Z,15.13
2019-05-17T19:53:12.640Z,15.11
2019-05-17T19:55:41.142Z,14.78
2019-05-17T19:58:09.583Z,14.96
2019-05-17T20:00:38.013Z,15.00
2019-05-17T20:03:06.462Z,15.03
2019-05-17T20:05:34.898Z,15.05
2019-05-17T20:08:03.357Z,15.03
2019-05-17T20:10:31.840Z,14.98
2019-05-17T20:13:00.329Z,15.04
2019-05-17T20:15:34.547Z,15.02
2019-05-17T20:17:58.900Z,14.98
2019-05-17T20:20:27.425Z,14.95
2019-05-17T20:22:55.884Z,14.96
2019-05-17T20:25:24.401Z,14.95
2019-05-17T20:27:52.898Z,14.94
2019-05-17T20:30:21.429Z,14.87
2019-05-17T20:32:49.879Z,14.86
2019-05-17T20:35:18.553Z,14.90
2019-05-17T20:37:47.009Z,14.92
2019-05-17T20:40:15.620Z,14.85
2019-05-17T20:42:44.086Z,15.03
2019-05-17T20:45:12.759Z,14.95
2019-05-17T20:47:41.190Z,14.82
2019-05-17T20:50:10.971Z,14.80
2019-05-17T20:52:39.403Z,14.83
2019-05-17T20:55:08.366Z,14.82
2019-05-17T20:57:36.799Z,14.86
2019-05-17T21:00:09.749Z,14.94
2019-05-17T21:02:38.339Z,14.95
2019-05-17T21:05:08.031Z,14.99
2019-05-17T21:07:36.475Z,15.03
2019-05-17T21:10:06.444Z,14.94
2019-05-17T21:12:34.902Z,14.94
2019-05-17T21:15:04.325Z,14.84
2019-05-17T21:17:33.008Z,14.83
2019-05-17T21:20:02.265Z,14.91
2019-05-17T21:22:30.684Z,14.89
2019-05-17T21:24:59.111Z,14.97
2019-05-17T21:27:27.541Z,14.99
2019-05-17T21:29:55.971Z,14.96
2019-05-17T21:32:24.422Z,14.96
2019-05-17T21:34:58.839Z,14.98
2019-05-17T21:37:27.291Z,15.01
2019-05-17T21:39:55.710Z,14.97
2019-05-17T21:42:24.138Z,14.96
2019-05-17T21:44:52.602Z,14.89
2019-05-17T21:47:21.044Z,14.84
2019-05-17T21:49:49.620Z,14.77
2019-05-17T21:52:18.053Z,14.72
2019-05-17T21:54:46.482Z,14.74
2019-05-17T21:57:14.899Z,14.75
2019-05-17T21:59:43.325Z,14.75
2019-05-17T22:02:11.774Z,14.75
2019-05-17T22:04:40.245Z,14.73
2019-05-17T22:07:08.690Z,14.77
2019-05-17T22:09:37.135Z,14.79
2019-05-17T22:12:07.232Z,14.74
2019-05-17T22:14:35.673Z,14.68
2019-05-17T22:17:04.166Z,14.62
2019-05-17T22:19:32.529Z,14.57
2019-05-17T22:22:01.017Z,14.57
2019-05-17T22:24:29.430Z,14.55
2019-05-17T22:26:57.882Z,14.52
2019-05-17T22:29:26.299Z,14.55
2019-05-17T22:31:54.871Z,14.50
2019-05-17T22:34:23.279Z,14.48
2019-05-17T22:36:51.755Z,14.48
2019-05-17T22:39:20.191Z,14.50
2019-05-17T22:41:48.719Z,14.42
2019-05-17T22:44:17.163Z,14.41
2019-05-17T22:46:45.591Z,14.36
2019-05-17T22:49:14.012Z,14.37
2019-05-17T22:51:42.473Z,14.36
2019-05-17T22:54:10.885Z,14.33
2019-05-17T22:56:39.402Z,14.19
2019-05-17T22:59:07.834Z,14.11
2019-05-17T23:01:36.340Z,14.03
2019-05-17T23:04:04.834Z,14.06
2019-05-17T23:06:33.279Z,14.10
2019-05-17T23:09:01.690Z,14.09
2019-05-17T23:11:30.134Z,14.16
2019-05-17T23:13:58.556Z,14.21
2019-05-17T23:16:27.058Z,14.28
2019-05-17T23:19:08.891Z,14.31
2019-05-17T23:21:37.745Z,14.30
2019-05-17T23:24:06.385Z,14.26
2019-05-17T23:26:34.827Z,14.26
2019-05-17T23:29:03.599Z,14.31
2019-05-17T23:31:32.108Z,14.32
2019-05-17T23:34:00.614Z,14.29
2019-05-17T23:36:29.053Z,14.24
2019-05-17T23:38:57.503Z,14.22
2019-05-17T23:41:25.931Z,14.20
2019-05-17T23:43:54.390Z,14.19
2019-05-17T23:46:22.848Z,14.11
2019-05-17T23:48:51.291Z,14.07
2019-05-17T23:51:19.780Z,14.04
2019-05-17T23:53:48.243Z,14.00
2019-05-17T23:56:16.663Z,13.97
2019-05-17T23:58:45.142Z,13.91
